createdAt,value
2023-03-18T00:00:25.974Z,93.21
2023-03-18T00:01:22.591Z,92.93
2023-03-18T00:02:19.342Z,93.87
2023-03-18T00:03:16.116Z,94.13
2023-03-18T00:04:13.168Z,93.81
2023-03-18T00:05:11.136Z,94.49
2023-03-18T00:06:11.681Z,94.37
2023-03-18T00:07:08.425Z,94.23
2023-03-18T00:08:06.483Z,94.55
2023-03-18T00:09:03.226Z,94.56
2023-03-18T00:09:59.848Z,94.27
2023-03-18T00:10:57.517Z,94.88
2023-03-18T00:11:56.648Z,94.50
2023-03-18T00:12:53.644Z,94.96
2023-03-18T00:13:50.563Z,94.34
2023-03-18T00:14:47.194Z,94.26
2023-03-18T00:15:43.785Z,94.50
2023-03-18T00:16:40.866Z,93.74
2023-03-18T00:17:37.914Z,94.08
2023-03-18T00:18:34.945Z,94.06
2023-03-18T00:19:33.325Z,94.09
2023-03-18T00:20:38.714Z,94.58
2023-03-18T00:21:35.437Z,94.19
2023-03-18T00:22:37.581Z,95.22
2023-03-18T00:23:34.716Z,94.98
2023-03-18T00:24:31.386Z,94.79
2023-03-18T00:25:28.341Z,95.35
2023-03-18T00:26:27.162Z,95.39
2023-03-18T00:27:23.866Z,95.13
2023-03-18T00:28:20.795Z,95.69
2023-03-18T00:29:17.577Z,94.98
2023-03-18T00:30:14.797Z,94.64
2023-03-18T00:31:13.817Z,94.65
2023-03-18T00:32:11.255Z,94.41
2023-03-18T00:33:09.768Z,94.60
2023-03-18T00:34:08.082Z,94.24
2023-03-18T00:35:05.389Z,93.70
2023-03-18T00:36:02.804Z,94.15
2023-03-18T00:37:00.349Z,93.70
2023-03-18T00:37:58.813Z,94.27
2023-03-18T00:38:57.996Z,94.10
2023-03-18T00:39:54.745Z,94.23
2023-03-18T00:41:01.734Z,93.96
2023-03-18T00:41:58.951Z,94.47
2023-03-18T00:43:01.776Z,94.97
2023-03-18T00:43:58.833Z,94.35
2023-03-18T00:44:55.404Z,94.57
2023-03-18T00:45:52.048Z,94.86
2023-03-18T00:46:48.780Z,94.73
2023-03-18T00:47:45.434Z,94.67
2023-03-18T00:48:43.100Z,94.25
2023-03-18T00:49:39.695Z,94.78
2023-03-18T00:50:37.555Z,94.69
2023-03-18T00:51:37.474Z,94.37
2023-03-18T00:52:35.573Z,94.59
2023-03-18T00:53:32.225Z,94.72
2023-03-18T00:54:29.136Z,94.22
2023-03-18T00:55:26.064Z,94.31
2023-03-18T00:56:25.614Z,94.68
2023-03-18T00:57:22.804Z,94.17
2023-03-18T00:58:19.609Z,94.16
2023-03-18T00:59:16.548Z,94.66
2023-03-18T01:00:17.022Z,94.77
2023-03-18T01:01:14.366Z,94.93
2023-03-18T01:02:11.230Z,94.82
2023-03-18T01:03:09.014Z,94.40
2023-03-18T01:04:06.848Z,94.82
2023-03-18T01:05:04.536Z,94.67
2023-03-18T01:06:04.187Z,94.93
2023-03-18T01:07:01.360Z,94.46
2023-03-18T01:07:58.309Z,94.97
2023-03-18T01:08:56.583Z,94.72
2023-03-18T01:09:54.805Z,94.86
2023-03-18T01:10:51.410Z,94.86
2023-03-18T01:11:47.997Z,94.86
2023-03-18T01:12:47.273Z,94.88
2023-03-18T01:13:44.483Z,94.80
2023-03-18T01:14:42.039Z,94.42
2023-03-18T01:15:38.769Z,94.98
2023-03-18T01:16:35.429Z,95.37
2023-03-18T01:17:32.463Z,95.44
2023-03-18T01:18:30.506Z,94.77
2023-03-18T01:19:27.248Z,94.99
2023-03-18T01:20:24.919Z,94.51
2023-03-18T01:21:22.375Z,94.60
2023-03-18T01:22:19.596Z,94.39
2023-03-18T01:23:16.353Z,94.77
2023-03-18T01:24:13.275Z,94.69
2023-03-18T01:25:11.718Z,94.31
2023-03-18T01:26:09.760Z,94.47
2023-03-18T01:27:06.512Z,94.39
2023-03-18T01:28:03.996Z,94.22
2023-03-18T01:29:00.679Z,94.39
2023-03-18T01:29:57.735Z,94.40
2023-03-18T01:30:55.341Z,94.61
2023-03-18T01:31:52.217Z,94.36
2023-03-18T01:32:49.090Z,94.52
2023-03-18T01:33:45.839Z,94.75
2023-03-18T01:34:42.498Z,94.82
2023-03-18T01:35:39.532Z,95.12
2023-03-18T01:36:36.153Z,95.34
2023-03-18T01:37:33.595Z,95.25
2023-03-18T01:38:30.708Z,95.32
2023-03-18T01:39:27.419Z,95.24
2023-03-18T01:40:23.990Z,95.91
2023-03-18T01:41:20.672Z,96.07
2023-03-18T01:42:21.503Z,95.08
2023-03-18T01:43:20.795Z,95.02
2023-03-18T01:44:21.077Z,95.57
2023-03-18T01:45:24.254Z,94.72
2023-03-18T01:46:30.312Z,95.09
2023-03-18T01:47:26.912Z,94.93
2023-03-18T01:48:27.195Z,95.13
2023-03-18T01:49:29.081Z,95.50
2023-03-18T01:50:31.113Z,95.54
2023-03-18T01:51:29.327Z,95.90
2023-03-18T01:52:31.238Z,96.39
2023-03-18T01:53:32.693Z,96.33
2023-03-18T01:54:33.797Z,96.78
2023-03-18T01:55:32.251Z,96.86
2023-03-18T01:56:29.425Z,96.77
2023-03-18T01:57:28.032Z,97.01
2023-03-18T01:58:29.546Z,97.54
2023-03-18T01:59:29.837Z,97.30
2023-03-18T02:00:26.476Z,97.84
2023-03-18T02:01:32.129Z,97.42
2023-03-18T02:02:29.609Z,98.04
2023-03-18T02:03:27.816Z,97.56
2023-03-18T02:04:31.151Z,98.23
2023-03-18T02:05:28.464Z,97.96
2023-03-18T02:06:25.578Z,98.03
2023-03-18T02:07:31.250Z,98.33
2023-03-18T02:08:29.037Z,97.95
2023-03-18T02:09:25.793Z,97.72
2023-03-18T02:10:26.869Z,97.91
2023-03-18T02:12:33.555Z,98.15
2023-03-18T02:13:32.846Z,98.07
2023-03-18T02:14:29.782Z,98.06
2023-03-18T02:15:28.436Z,98.32
2023-03-18T02:16:31.317Z,98.47
2023-03-18T02:17:32.465Z,98.25
2023-03-18T02:18:36.713Z,98.35
2023-03-18T02:19:57.243Z,98.27
2023-03-18T02:21:12.699Z,98.57
2023-03-18T02:22:09.777Z,97.72
2023-03-18T02:23:17.280Z,97.72
2023-03-18T02:24:30.171Z,97.08
2023-03-18T02:25:50.060Z,97.00
2023-03-18T02:27:22.953Z,97.61
2023-03-18T02:28:26.066Z,97.01
2023-03-18T02:29:23.706Z,97.76
2023-03-18T02:30:32.973Z,97.81
2023-03-18T02:31:29.861Z,97.98
2023-03-18T02:32:29.407Z,98.00
2023-03-18T02:33:31.516Z,97.85
2023-03-18T02:34:29.340Z,98.09
2023-03-18T02:35:28.021Z,98.29
2023-03-18T02:36:31.106Z,98.68
2023-03-18T02:37:27.721Z,98.56
2023-03-18T02:38:24.366Z,98.83
2023-03-18T02:39:22.325Z,98.56
2023-03-18T02:40:25.504Z,98.40
2023-03-18T02:41:25.815Z,98.72
2023-03-18T02:42:32.019Z,98.20
2023-03-18T02:43:31.607Z,98.04
2023-03-18T02:44:28.810Z,98.25
2023-03-18T02:45:51.470Z,98.16
2023-03-18T02:47:04.279Z,97.31
2023-03-18T02:48:04.218Z,97.51
2023-03-18T02:49:02.598Z,97.56
2023-03-18T02:49:59.825Z,97.67
2023-03-18T02:50:57.686Z,97.66
2023-03-18T02:51:55.454Z,97.40
2023-03-18T02:52:52.087Z,97.71
2023-03-18T02:53:50.808Z,97.73
2023-03-18T02:54:47.414Z,97.25
2023-03-18T02:55:44.083Z,97.39
2023-03-18T02:56:42.348Z,97.76
2023-03-18T02:57:38.999Z,97.70
2023-03-18T02:58:37.167Z,97.50
2023-03-18T02:59:33.832Z,97.58
2023-03-18T03:00:30.763Z,97.79
2023-03-18T03:01:27.885Z,97.50
2023-03-18T03:02:24.621Z,98.15
2023-03-18T03:03:21.871Z,98.20
2023-03-18T03:04:20.161Z,97.75
2023-03-18T03:05:17.415Z,98.36
2023-03-18T03:06:14.122Z,98.42
2023-03-18T03:07:12.365Z,98.54
2023-03-18T03:08:10.014Z,98.23
2023-03-18T03:09:08.602Z,98.22
2023-03-18T03:10:06.873Z,98.47
2023-03-18T03:11:03.837Z,98.29
2023-03-18T03:12:00.977Z,98.41
2023-03-18T03:12:57.645Z,98.42
2023-03-18T03:13:54.647Z,98.58
2023-03-18T03:14:51.657Z,98.38
2023-03-18T03:15:48.716Z,98.06
2023-03-18T03:16:45.420Z,98.01
2023-03-18T03:17:42.589Z,97.68
2023-03-18T03:18:39.123Z,98.12
2023-03-18T03:19:35.710Z,98.02
2023-03-18T03:20:35.624Z,98.13
2023-03-18T03:21:35.849Z,98.01
2023-03-18T03:22:34.318Z,98.43
2023-03-18T03:23:31.203Z,98.45
2023-03-18T03:24:28.126Z,98.51
2023-03-18T03:25:27.123Z,97.95
2023-03-18T03:26:23.979Z,98.17
2023-03-18T03:27:20.641Z,98.21
2023-03-18T03:28:17.245Z,97.93
2023-03-18T03:29:14.491Z,97.75
2023-03-18T03:30:12.723Z,97.98
2023-03-18T03:31:10.863Z,97.54
2023-03-18T03:32:07.548Z,98.02
2023-03-18T03:33:04.544Z,97.81
2023-03-18T03:34:01.411Z,97.95
2023-03-18T03:34:58.550Z,97.48
2023-03-18T03:35:55.426Z,97.22
2023-03-18T03:36:52.184Z,97.22
2023-03-18T03:37:49.356Z,97.63
2023-03-18T03:38:46.207Z,97.17
2023-03-18T03:39:43.487Z,97.41
2023-03-18T03:40:40.416Z,97.55
2023-03-18T03:41:37.015Z,97.84
2023-03-18T03:42:33.717Z,97.94
2023-03-18T03:43:30.306Z,97.41
2023-03-18T03:44:26.960Z,97.55
2023-03-18T03:45:24.993Z,97.61
2023-03-18T03:46:21.650Z,97.54
2023-03-18T03:47:18.273Z,98.46
2023-03-18T03:48:14.849Z,98.14
2023-03-18T03:49:11.608Z,98.27
2023-03-18T03:50:11.056Z,98.28
2023-03-18T03:51:07.854Z,98.21
2023-03-18T03:52:05.116Z,98.30
2023-03-18T03:53:02.594Z,98.79
2023-03-18T03:53:59.281Z,98.46
2023-03-18T03:54:56.597Z,98.92
2023-03-18T03:55:55.299Z,98.72
2023-03-18T03:56:53.365Z,98.88
2023-03-18T03:57:51.267Z,98.75
2023-03-18T03:58:47.967Z,98.74
2023-03-18T03:59:44.611Z,98.68
2023-03-18T04:00:41.338Z,98.90
2023-03-18T04:01:37.918Z,98.75
2023-03-18T04:02:34.580Z,98.60
2023-03-18T04:03:31.176Z,98.48
2023-03-18T04:04:27.991Z,99.19
2023-03-18T04:05:25.617Z,98.68
2023-03-18T04:06:22.532Z,98.90
2023-03-18T04:07:20.123Z,98.79
2023-03-18T04:08:16.859Z,99.48
2023-03-18T04:09:13.462Z,99.20
2023-03-18T04:10:13.624Z,99.15
2023-03-18T04:11:10.307Z,99.65
2023-03-18T04:12:08.123Z,99.38
2023-03-18T04:13:05.458Z,99.43
2023-03-18T04:14:02.042Z,99.12
2023-03-18T04:14:59.220Z,99.09
2023-03-18T04:15:55.828Z,99.52
2023-03-18T04:16:52.495Z,99.56
2023-03-18T04:17:50.178Z,99.03
2023-03-18T04:18:46.873Z,99.16
2023-03-18T04:19:43.515Z,99.56
2023-03-18T04:20:40.654Z,99.01
2023-03-18T04:21:37.498Z,99.17
2023-03-18T04:22:34.143Z,99.28
2023-03-18T04:23:33.207Z,99.15
2023-03-18T04:24:29.784Z,99.18
2023-03-18T04:25:26.426Z,99.30
2023-03-18T04:26:23.278Z,99.02
2023-03-18T04:27:20.785Z,99.29
2023-03-18T04:28:17.507Z,99.38
2023-03-18T04:29:14.352Z,99.45
2023-03-18T04:30:11.882Z,99.07
2023-03-18T04:31:08.595Z,98.84
2023-03-18T04:32:05.683Z,99.54
2023-03-18T04:33:03.488Z,98.96
2023-03-18T04:34:00.320Z,98.70
2023-03-18T04:34:57.737Z,99.35
2023-03-18T04:35:54.326Z,99.40
2023-03-18T04:36:51.266Z,98.96
2023-03-18T04:37:48.786Z,99.00
2023-03-18T04:38:45.487Z,99.32
2023-03-18T04:39:42.117Z,99.41
2023-03-18T04:40:38.702Z,100.00
2023-03-18T04:41:37.671Z,99.79
2023-03-18T04:42:34.271Z,99.96
2023-03-18T04:43:30.883Z,99.64
2023-03-18T04:44:27.625Z,99.65
2023-03-18T04:45:24.995Z,99.69
2023-03-18T04:46:21.602Z,99.78
2023-03-18T04:47:18.348Z,99.29
2023-03-18T04:48:15.003Z,99.18
2023-03-18T04:49:11.850Z,99.01
2023-03-18T04:50:13.061Z,98.96
2023-03-18T04:51:10.470Z,98.45
2023-03-18T04:52:08.330Z,98.27
2023-03-18T04:53:04.920Z,98.09
2023-03-18T04:54:01.496Z,98.07
2023-03-18T04:54:58.270Z,97.52
2023-03-18T04:55:55.368Z,97.35
2023-03-18T04:56:52.085Z,97.50
2023-03-18T04:57:50.589Z,97.28
2023-03-18T04:58:47.211Z,96.48
2023-03-18T04:59:44.458Z,96.67
2023-03-18T05:00:41.165Z,96.57
2023-03-18T05:01:38.196Z,96.14
2023-03-18T05:02:34.823Z,96.04
2023-03-18T05:03:31.671Z,96.06
2023-03-18T05:04:28.989Z,95.73
2023-03-18T05:05:26.127Z,94.98
2023-03-18T05:06:26.966Z,95.29
2023-03-18T05:07:23.682Z,94.76
2023-03-18T05:08:20.646Z,94.79
2023-03-18T05:09:18.263Z,94.77
2023-03-18T05:10:15.057Z,94.53
2023-03-18T05:11:11.619Z,94.79
2023-03-18T05:12:15.445Z,94.51
2023-03-18T05:13:11.994Z,94.49
2023-03-18T05:14:08.823Z,94.56
2023-03-18T05:15:06.642Z,94.39
2023-03-18T05:16:04.875Z,94.48
2023-03-18T05:17:02.411Z,94.19
2023-03-18T05:18:00.052Z,94.22
2023-03-18T05:18:57.006Z,93.72
2023-03-18T05:19:53.685Z,94.03
2023-03-18T05:20:50.328Z,93.40
2023-03-18T05:21:46.983Z,93.57
2023-03-18T05:22:43.926Z,93.78
2023-03-18T05:23:41.110Z,93.28
2023-03-18T05:24:38.529Z,92.96
2023-03-18T05:25:35.182Z,93.31
2023-03-18T05:26:31.956Z,92.87
2023-03-18T05:27:29.797Z,92.83
2023-03-18T05:28:27.217Z,93.29
2023-03-18T05:29:24.080Z,93.58
2023-03-18T05:30:20.930Z,92.99
2023-03-18T05:31:17.786Z,92.89
2023-03-18T05:32:15.222Z,93.46
2023-03-18T05:33:11.871Z,93.45
2023-03-18T05:34:09.061Z,93.57
2023-03-18T05:35:06.306Z,93.50
2023-03-18T05:36:03.288Z,93.43
2023-03-18T05:37:00.134Z,93.16
2023-03-18T05:37:56.721Z,92.87
2023-03-18T05:38:53.565Z,92.10
2023-03-18T05:39:50.634Z,92.16
2023-03-18T05:40:47.384Z,91.96
2023-03-18T05:41:43.958Z,91.76
2023-03-18T05:42:55.321Z,91.27
2023-03-18T05:43:52.659Z,90.86
2023-03-18T05:44:49.759Z,91.01
2023-03-18T05:45:46.517Z,90.76
2023-03-18T05:46:43.348Z,90.12
2023-03-18T05:47:40.068Z,89.79
2023-03-18T05:48:36.900Z,89.46
2023-03-18T05:49:33.681Z,89.10
2023-03-18T05:50:35.936Z,88.67
2023-03-18T05:51:32.620Z,88.54
2023-03-18T05:52:29.307Z,88.36
2023-03-18T05:53:26.430Z,88.55
2023-03-18T05:54:23.499Z,88.60
2023-03-18T05:55:20.134Z,87.98
2023-03-18T05:56:16.836Z,87.54
2023-03-18T05:57:13.766Z,87.18
2023-03-18T05:58:11.839Z,87.13
2023-03-18T05:59:08.615Z,86.19
2023-03-18T06:00:05.740Z,85.46
2023-03-18T06:01:02.358Z,84.54
2023-03-18T06:01:59.088Z,84.89
2023-03-18T06:02:59.656Z,84.77
2023-03-18T06:03:56.519Z,83.83
2023-03-18T06:04:53.627Z,83.29
2023-03-18T06:05:50.199Z,83.35
2023-03-18T06:06:47.068Z,82.89
2023-03-18T06:07:43.703Z,83.36
2023-03-18T06:08:41.282Z,83.58
2023-03-18T06:09:38.013Z,84.02
2023-03-18T06:10:34.578Z,84.52
2023-03-18T06:11:31.266Z,84.45
2023-03-18T06:12:30.606Z,84.37
2023-03-18T06:13:29.475Z,84.24
2023-03-18T06:14:31.486Z,84.27
2023-03-18T06:15:28.063Z,84.58
2023-03-18T06:16:24.864Z,84.71
2023-03-18T06:17:22.251Z,84.72
2023-03-18T06:18:18.886Z,85.10
2023-03-18T06:19:15.518Z,85.10
2023-03-18T06:20:14.255Z,85.74
2023-03-18T06:21:10.958Z,85.82
2023-03-18T06:22:07.597Z,85.40
2023-03-18T06:23:05.378Z,85.06
2023-03-18T06:24:02.315Z,85.40
2023-03-18T06:24:58.928Z,84.78
2023-03-18T06:25:56.159Z,84.67
2023-03-18T06:26:52.801Z,84.44
2023-03-18T06:27:50.915Z,84.60
2023-03-18T06:28:47.575Z,84.87
2023-03-18T06:29:44.364Z,85.05
2023-03-18T06:30:41.510Z,84.65
2023-03-18T06:31:38.150Z,83.77
2023-03-18T06:32:35.437Z,82.81
2023-03-18T06:33:32.903Z,82.68
2023-03-18T06:34:29.540Z,82.82
2023-03-18T06:35:27.631Z,83.10
2023-03-18T06:36:24.369Z,82.63
2023-03-18T06:37:21.738Z,81.20
2023-03-18T06:38:18.522Z,80.89
2023-03-18T06:39:15.155Z,80.17
2023-03-18T06:40:12.468Z,79.90
2023-03-18T06:41:09.063Z,80.11
2023-03-18T06:42:05.837Z,80.01
2023-03-18T06:43:03.256Z,80.91
2023-03-18T06:43:59.860Z,80.42
2023-03-18T06:44:56.448Z,80.39
2023-03-18T06:45:53.315Z,79.88
2023-03-18T06:46:50.128Z,79.65
2023-03-18T06:47:48.058Z,79.11
2023-03-18T06:48:45.711Z,79.04
2023-03-18T06:49:42.589Z,80.11
2023-03-18T06:50:39.760Z,79.73
2023-03-18T06:51:36.734Z,79.22
2023-03-18T06:52:33.321Z,78.57
2023-03-18T06:53:29.968Z,77.87
2023-03-18T06:54:26.746Z,77.02
2023-03-18T06:55:23.850Z,77.00
2023-03-18T06:56:20.468Z,77.22
2023-03-18T06:57:17.215Z,78.38
2023-03-18T06:58:13.941Z,77.55
2023-03-18T06:59:11.020Z,75.53
2023-03-18T07:00:09.132Z,76.65
2023-03-18T07:01:05.821Z,76.35
2023-03-18T07:02:03.681Z,74.96
2023-03-18T07:03:01.487Z,74.99
2023-03-18T07:03:59.110Z,75.74
2023-03-18T07:04:56.154Z,75.69
2023-03-18T07:05:53.097Z,75.45
2023-03-18T07:06:50.317Z,75.17
2023-03-18T07:07:48.555Z,75.50
2023-03-18T07:08:45.969Z,76.04
2023-03-18T07:09:43.748Z,75.36
2023-03-18T07:10:40.864Z,75.11
2023-03-18T07:11:37.520Z,75.19
2023-03-18T07:12:34.085Z,76.25
2023-03-18T07:13:30.853Z,77.39
2023-03-18T07:14:28.499Z,77.23
2023-03-18T07:15:26.490Z,77.78
2023-03-18T07:16:23.153Z,75.88
2023-03-18T07:17:20.010Z,75.07
2023-03-18T07:18:17.308Z,74.34
2023-03-18T07:19:14.025Z,75.21
2023-03-18T07:20:11.188Z,74.53
2023-03-18T07:21:07.781Z,72.86
2023-03-18T07:22:04.819Z,72.65
2023-03-18T07:23:02.091Z,73.60
2023-03-18T07:23:58.962Z,72.15
2023-03-18T07:24:55.586Z,73.28
2023-03-18T07:25:52.722Z,73.71
2023-03-18T07:26:51.767Z,74.71
2023-03-18T07:27:48.426Z,74.41
2023-03-18T07:28:45.111Z,74.48
2023-03-18T07:29:41.832Z,74.32
2023-03-18T07:30:38.644Z,75.13
2023-03-18T07:31:35.544Z,75.70
2023-03-18T07:32:32.739Z,74.71
2023-03-18T07:33:29.541Z,73.91
2023-03-18T07:34:27.276Z,74.52
2023-03-18T07:35:23.894Z,75.44
2023-03-18T07:36:20.840Z,75.55
2023-03-18T07:37:17.539Z,74.60
2023-03-18T07:38:14.166Z,73.99
2023-03-18T07:39:11.183Z,74.42
2023-03-18T07:40:11.866Z,73.89
2023-03-18T07:41:08.585Z,69.91
2023-03-18T07:42:05.254Z,70.88
2023-03-18T07:43:01.934Z,72.25
2023-03-18T07:43:58.760Z,72.41
2023-03-18T07:44:55.405Z,71.62
2023-03-18T07:45:52.040Z,72.27
2023-03-18T07:46:48.759Z,71.27
2023-03-18T07:47:47.310Z,71.56
2023-03-18T07:48:44.031Z,71.68
2023-03-18T07:49:41.645Z,71.34
2023-03-18T07:50:38.353Z,69.58
2023-03-18T07:51:34.946Z,67.97
2023-03-18T07:52:32.064Z,68.19
2023-03-18T07:53:29.363Z,69.93
2023-03-18T07:54:26.124Z,71.44
2023-03-18T07:55:22.780Z,72.44
2023-03-18T07:56:19.378Z,72.97
2023-03-18T07:57:16.056Z,72.42
2023-03-18T07:58:13.658Z,70.21
2023-03-18T07:59:10.457Z,67.69
2023-03-18T08:00:10.494Z,68.59
2023-03-18T08:01:07.729Z,69.40
2023-03-18T08:02:05.065Z,69.31
2023-03-18T08:03:02.131Z,70.58
2023-03-18T08:03:58.945Z,70.13
2023-03-18T08:04:55.674Z,69.71
2023-03-18T08:05:52.558Z,65.92
2023-03-18T08:06:49.447Z,64.85
2023-03-18T08:07:46.128Z,65.16
2023-03-18T08:08:43.821Z,65.56
2023-03-18T08:09:40.616Z,66.59
2023-03-18T08:10:37.272Z,67.17
2023-03-18T08:11:33.918Z,65.54
2023-03-18T08:12:41.607Z,64.56
2023-03-18T08:13:47.167Z,65.37
2023-03-18T08:14:43.769Z,66.88
2023-03-18T08:15:41.207Z,65.37
2023-03-18T08:16:38.055Z,65.20
2023-03-18T08:17:35.088Z,65.67
2023-03-18T08:18:32.181Z,64.79
2023-03-18T08:19:28.866Z,65.23
2023-03-18T08:20:26.598Z,63.63
2023-03-18T08:21:23.847Z,64.28
2023-03-18T08:22:20.922Z,66.19
2023-03-18T08:23:17.638Z,66.06
2023-03-18T08:24:14.404Z,66.27
2023-03-18T08:25:11.655Z,65.26
2023-03-18T08:26:08.402Z,64.13
2023-03-18T08:27:05.872Z,63.09
2023-03-18T08:28:02.782Z,62.15
2023-03-18T08:28:59.627Z,63.25
2023-03-18T08:29:57.067Z,62.41
2023-03-18T08:30:55.922Z,62.81
2023-03-18T08:31:52.684Z,63.22
2023-03-18T08:32:49.321Z,65.35
2023-03-18T08:33:46.426Z,63.89
2023-03-18T08:34:43.748Z,64.12
2023-03-18T08:35:43.831Z,63.08
2023-03-18T08:36:42.549Z,62.21
2023-03-18T08:37:39.337Z,63.90
2023-03-18T08:38:36.011Z,61.73
2023-03-18T08:39:33.768Z,63.37
2023-03-18T08:40:30.789Z,62.17
2023-03-18T08:41:29.950Z,62.35
2023-03-18T08:42:27.853Z,62.36
2023-03-18T08:43:25.180Z,63.08
2023-03-18T08:44:21.835Z,63.00
2023-03-18T08:45:18.965Z,63.51
2023-03-18T08:46:15.685Z,60.90
2023-03-18T08:47:12.363Z,61.82
2023-03-18T08:48:09.985Z,62.57
2023-03-18T08:49:07.899Z,60.38
2023-03-18T08:50:06.013Z,60.43
2023-03-18T08:51:08.254Z,60.98
2023-03-18T08:52:06.721Z,61.38
2023-03-18T08:53:04.306Z,59.96
2023-03-18T08:54:01.032Z,60.59
2023-03-18T08:54:58.586Z,59.42
2023-03-18T08:55:55.327Z,61.32
2023-03-18T08:56:52.741Z,62.18
2023-03-18T08:57:50.193Z,61.11
2023-03-18T08:58:48.248Z,59.55
2023-03-18T08:59:44.967Z,60.21
2023-03-18T09:00:43.054Z,60.03
2023-03-18T09:01:39.928Z,61.77
2023-03-18T09:02:36.651Z,61.43
2023-03-18T09:03:34.741Z,62.58
2023-03-18T09:04:31.553Z,62.75
2023-03-18T09:05:31.722Z,62.45
2023-03-18T09:06:30.345Z,60.36
2023-03-18T09:07:26.976Z,59.79
2023-03-18T09:08:24.211Z,58.75
2023-03-18T09:09:22.919Z,59.18
2023-03-18T09:10:23.382Z,57.61
2023-03-18T09:11:20.085Z,55.45
2023-03-18T09:12:16.703Z,56.66
2023-03-18T09:13:14.005Z,57.41
2023-03-18T09:14:10.637Z,57.71
2023-03-18T09:15:10.114Z,56.50
2023-03-18T09:16:07.383Z,56.43
2023-03-18T09:17:04.875Z,55.29
2023-03-18T09:18:11.506Z,55.47
2023-03-18T09:19:09.086Z,54.39
2023-03-18T09:20:07.381Z,53.70
2023-03-18T09:21:05.018Z,53.68
2023-03-18T09:22:02.098Z,52.92
2023-03-18T09:22:59.409Z,53.68
2023-03-18T09:23:56.691Z,55.02
2023-03-18T09:24:53.322Z,55.31
2023-03-18T09:25:50.298Z,54.18
2023-03-18T09:26:47.772Z,54.33
2023-03-18T09:27:45.795Z,54.24
2023-03-18T09:28:42.659Z,53.40
2023-03-18T09:29:39.439Z,51.98
2023-03-18T09:30:36.863Z,54.08
2023-03-18T09:31:33.724Z,55.96
2023-03-18T09:32:30.676Z,56.98
2023-03-18T09:33:27.579Z,56.75
2023-03-18T09:34:24.188Z,56.01
2023-03-18T09:35:20.816Z,54.93
2023-03-18T09:36:18.250Z,55.23
2023-03-18T09:37:15.080Z,56.13
2023-03-18T09:38:16.785Z,56.31
2023-03-18T09:39:14.239Z,54.92
2023-03-18T09:40:22.316Z,54.65
2023-03-18T09:41:38.408Z,55.54
2023-03-18T09:43:05.975Z,56.34
2023-03-18T09:44:08.694Z,56.54
2023-03-18T09:45:31.226Z,55.13
2023-03-18T09:46:46.347Z,55.40
2023-03-18T09:48:04.288Z,54.19
2023-03-18T09:49:05.694Z,53.79
2023-03-18T09:50:17.650Z,55.64
2023-03-18T09:51:38.641Z,54.42
2023-03-18T09:52:42.519Z,55.17
2023-03-18T09:53:43.366Z,53.26
2023-03-18T09:54:49.017Z,55.01
2023-03-18T09:56:02.164Z,54.78
2023-03-18T09:56:59.695Z,54.24
2023-03-18T09:58:03.166Z,53.78
2023-03-18T09:59:04.642Z,52.60
2023-03-18T10:00:38.010Z,52.97
2023-03-18T10:01:38.979Z,55.40
2023-03-18T10:02:35.793Z,55.54
2023-03-18T10:04:01.041Z,54.39
2023-03-18T10:05:01.975Z,53.71
2023-03-18T10:06:16.352Z,54.12
2023-03-18T10:07:19.008Z,54.87
2023-03-18T10:08:28.531Z,57.69
2023-03-18T10:09:30.564Z,58.29
2023-03-18T10:10:45.949Z,56.81
2023-03-18T10:11:47.974Z,52.83
2023-03-18T10:12:53.027Z,52.80
2023-03-18T10:13:56.780Z,53.32
2023-03-18T10:15:05.189Z,51.26
2023-03-18T10:16:05.004Z,49.44
2023-03-18T10:17:17.115Z,49.34
2023-03-18T10:18:13.677Z,50.43
2023-03-18T10:19:10.422Z,51.50
2023-03-18T10:20:18.288Z,48.65
2023-03-18T10:21:21.347Z,50.01
2023-03-18T10:22:37.875Z,50.84
2023-03-18T10:23:44.077Z,49.41
2023-03-18T10:25:01.602Z,50.38
2023-03-18T10:26:05.841Z,50.39
2023-03-18T10:27:21.133Z,50.39
2023-03-18T10:29:05.943Z,49.23
2023-03-18T10:30:17.526Z,50.67
2023-03-18T10:31:50.005Z,50.00
2023-03-18T10:32:55.693Z,50.26
2023-03-18T10:34:11.919Z,48.96
2023-03-18T10:35:33.562Z,52.03
2023-03-18T10:37:04.214Z,51.15
2023-03-18T10:38:05.756Z,48.55
2023-03-18T10:39:03.876Z,49.09
2023-03-18T10:40:00.758Z,47.79
2023-03-18T10:40:59.037Z,48.75
2023-03-18T10:42:01.163Z,49.91
2023-03-18T10:42:57.830Z,48.54
2023-03-18T10:43:56.425Z,44.61
2023-03-18T10:44:57.362Z,47.54
2023-03-18T10:46:06.153Z,46.03
2023-03-18T10:47:19.871Z,45.71
2023-03-18T10:48:32.520Z,46.00
2023-03-18T10:49:37.206Z,44.15
2023-03-18T10:50:39.025Z,46.75
2023-03-18T10:51:44.146Z,44.01
2023-03-18T10:52:56.963Z,41.89
2023-03-18T10:54:11.689Z,44.64
2023-03-18T10:55:39.585Z,42.71
2023-03-18T10:56:36.765Z,43.29
2023-03-18T10:57:33.454Z,41.76
2023-03-18T10:58:30.311Z,42.97
2023-03-18T10:59:28.668Z,40.39
2023-03-18T11:00:33.148Z,43.44
2023-03-18T11:01:30.226Z,40.75
2023-03-18T11:02:33.139Z,43.48
2023-03-18T11:03:36.439Z,42.89
2023-03-18T11:04:42.418Z,44.47
2023-03-18T11:05:39.326Z,42.73
2023-03-18T11:06:43.065Z,44.78
2023-03-18T11:08:06.518Z,43.52
2023-03-18T11:09:10.675Z,44.89
2023-03-18T11:10:13.864Z,44.22
2023-03-18T11:11:33.429Z,45.08
2023-03-18T11:12:32.478Z,44.04
2023-03-18T11:13:29.088Z,41.63
2023-03-18T11:14:31.016Z,45.07
2023-03-18T11:15:27.805Z,42.07
2023-03-18T11:16:56.844Z,42.56
2023-03-18T11:17:58.947Z,43.07
2023-03-18T11:18:55.597Z,41.77
2023-03-18T11:20:10.853Z,40.96
2023-03-18T11:21:13.012Z,42.49
2023-03-18T11:22:10.278Z,44.81
2023-03-18T11:23:13.710Z,47.09
2023-03-18T11:24:36.072Z,43.38
2023-03-18T11:25:32.916Z,45.05
2023-03-18T11:26:30.440Z,44.48
2023-03-18T11:27:33.625Z,41.33
2023-03-18T11:28:30.467Z,43.45
2023-03-18T11:29:30.347Z,42.49
2023-03-18T11:30:36.573Z,40.41
2023-03-18T11:31:34.053Z,43.80
2023-03-18T11:32:34.180Z,44.18
2023-03-18T11:33:37.304Z,42.85
2023-03-18T11:34:35.538Z,42.82
2023-03-18T11:35:38.849Z,43.53
2023-03-18T11:36:38.097Z,41.84
2023-03-18T11:37:37.999Z,43.83
2023-03-18T11:38:36.858Z,41.38
2023-03-18T11:39:39.733Z,44.76
2023-03-18T11:40:40.251Z,43.30
2023-03-18T11:41:38.251Z,43.52
2023-03-18T11:42:34.938Z,43.09
2023-03-18T11:43:31.561Z,40.73
2023-03-18T11:44:32.976Z,42.12
2023-03-18T11:45:36.887Z,39.96
2023-03-18T11:46:39.696Z,39.76
2023-03-18T11:47:39.025Z,39.82
2023-03-18T11:48:39.358Z,41.19
2023-03-18T11:49:36.979Z,42.24
2023-03-18T11:50:54.387Z,40.80
2023-03-18T11:52:01.803Z,40.69
2023-03-18T11:53:22.351Z,42.63
2023-03-18T11:54:38.293Z,39.70
2023-03-18T11:55:49.298Z,37.19
2023-03-18T11:56:51.406Z,38.24
2023-03-18T11:58:01.005Z,40.52
2023-03-18T11:59:16.765Z,40.71
2023-03-18T12:00:25.473Z,41.05
2023-03-18T12:01:57.921Z,42.74
2023-03-18T12:03:28.044Z,43.79
2023-03-18T12:05:02.128Z,44.15
2023-03-18T12:06:28.638Z,43.04
2023-03-18T12:07:31.284Z,44.65
2023-03-18T12:08:54.750Z,46.67
2023-03-18T12:10:14.902Z,45.91
2023-03-18T12:11:35.061Z,43.78
2023-03-18T12:13:03.628Z,44.57
2023-03-18T12:14:12.142Z,48.27
2023-03-18T12:15:27.287Z,46.73
2023-03-18T12:16:45.296Z,46.94
2023-03-18T12:17:53.743Z,46.13
2023-03-18T12:19:08.554Z,44.81
2023-03-18T12:20:40.301Z,45.91
2023-03-18T12:22:05.355Z,41.30
2023-03-18T12:23:31.362Z,39.61
2023-03-18T12:24:54.726Z,41.55
2023-03-18T12:25:52.288Z,42.35
2023-03-18T12:26:59.785Z,42.79
2023-03-18T12:28:18.135Z,40.85
2023-03-18T12:29:49.862Z,41.90
2023-03-18T12:31:23.856Z,40.50
2023-03-18T12:32:29.905Z,40.33
2023-03-18T12:33:51.047Z,42.09
2023-03-18T12:35:21.726Z,41.29
2023-03-18T12:36:30.385Z,40.11
2023-03-18T12:38:08.548Z,42.10
2023-03-18T12:39:14.671Z,41.33
2023-03-18T12:40:14.108Z,41.67
2023-03-18T12:41:18.288Z,41.65
2023-03-18T12:42:25.276Z,41.60
2023-03-18T12:43:43.860Z,42.65
2023-03-18T12:44:44.331Z,42.03
2023-03-18T12:45:46.313Z,44.32
2023-03-18T12:46:45.596Z,44.04
2023-03-18T12:47:50.637Z,41.85
2023-03-18T12:48:55.755Z,40.92
2023-03-18T12:49:58.351Z,42.10
2023-03-18T12:51:02.432Z,41.93
2023-03-18T12:51:58.960Z,41.12
2023-03-18T12:53:02.680Z,41.29
2023-03-18T12:54:16.259Z,40.45
2023-03-18T12:55:19.265Z,42.46
2023-03-18T12:56:26.227Z,42.31
2023-03-18T12:57:48.668Z,41.02
2023-03-18T12:58:52.206Z,42.14